Terminal Aerodrome Forecast
Issued by NWS

Home | Current Version | Previous Version | Text Only | Print | Product List | Glossary On
Versions: 1 2 3 4 5 6 7 8 9 10 11 12 13 14 15 16 17 18 19 20 21 22
000
FTUS46 KLOX 062320
TAFOXR
TAF
KOXR 062320Z 0700/0724 26012KT P6SM BKN015
     FM070100 27010KT P6SM SKC
     FM070500 VRB03KT P6SM OVC008
     FM071700 25007KT P6SM OVC012
     FM072200 26012KT P6SM SCT015=

USA.gov is the U.S. government's official web portal to all federal, state and local government web resources and services.